KALX/ALX METAR and TAF weather

Enter ICAO airport designator
Station Type Date Time Source
KALX METAR 2018/01/19 17:35 UTC NOAA

KALX 191735Z AUTO 35006KT 10SM CLR 08/M07 A3033 RMK AO2 T00771067


Station Type Date Time Source
KALX Decoded METAR 2018/01/19 17:35 UTC NOAA

Alexander City, Thomas C Russell Field Airport, AL, United States (KALX) 32-54-53N 085-57-46W
Jan 19, 2018 - 12:35 PM EST / 2018.01.19 1735 UTC
Wind: from the N (350 degrees) at 7 MPH (6 KT):0
Visibility: 10 mile(s):0
Sky conditions: clear
Temperature: 45.9 F (7.7 C)
Dew Point: 19.9 F (-6.7 C)
Relative Humidity: 35%
Pressure (altimeter): 30.33 in. Hg (1027 hPa)
ob: KALX 191735Z AUTO 35006KT 10SM CLR 08/M07 A3033 RMK AO2 T00771067
cycle: 17

Station Type Date Time Source
KALX TAF UTC NOAA

Error!


Example: see airport list